Time;durP1;ratioP1;P1;durP2;ratioP2;P2;SDS_P1;SDS_P2;PMS_P1;PMS_P2;Temp;Humidity;BMP_temperature;BMP_pressure;BME280_temperature;BME280_humidity;BME280_pressure;Samples;Min_cycle;Max_cycle;Signal;HPM_P1;HPM_P2
2023/05/02 00:00:02;;;;;;;15.63;12.82;;;13.60;99.90;;;;;;2086788;28;20265;-74
2023/05/02 00:01:05;;;;;;;15.63;12.80;;;13.60;99.90;;;;;;2089264;28;20048;-74
2023/05/02 00:02:06;;;;;;;16.48;13.18;;;13.60;99.90;;;;;;2084719;28;20051;-73
2023/05/02 00:03:07;;;;;;;18.20;13.77;;;13.60;99.90;;;;;;2087360;28;20769;-73
2023/05/02 00:04:08;;;;;;;16.88;13.60;;;13.60;99.90;;;;;;2086616;28;20036;-74
2023/05/02 00:05:08;;;;;;;17.55;13.18;;;13.60;99.90;;;;;;2089723;28;20032;-74
2023/05/02 00:06:09;;;;;;;18.67;13.02;;;13.60;99.90;;;;;;2091504;28;20032;-74
2023/05/02 00:07:10;;;;;;;15.45;12.90;;;13.60;99.90;;;;;;2088072;28;20132;-73
2023/05/02 00:08:11;;;;;;;18.23;13.30;;;13.60;99.90;;;;;;2085291;28;20062;-74
2023/05/02 00:09:12;;;;;;;15.00;12.60;;;13.60;99.90;;;;;;2081938;28;20032;-74
2023/05/02 00:10:13;;;;;;;16.77;12.80;;;13.60;99.90;;;;;;2092769;28;20616;-74
2023/05/02 00:11:14;;;;;;;15.63;12.40;;;13.60;99.90;;;;;;2092870;28;20028;-75
2023/05/02 00:12:14;;;;;;;16.10;13.07;;;13.60;99.90;;;;;;2086907;28;20644;-73
2023/05/02 00:13:15;;;;;;;17.23;12.93;;;13.60;99.90;;;;;;2091446;28;20552;-74
2023/05/02 00:14:15;;;;;;;16.30;12.98;;;13.60;99.90;;;;;;2091526;28;20024;-74
2023/05/02 00:15:16;;;;;;;14.60;12.25;;;13.60;99.90;;;;;;2090594;28;20067;-73
2023/05/02 00:16:17;;;;;;;18.10;13.63;;;13.60;99.90;;;;;;2090818;28;20027;-73
2023/05/02 00:17:20;;;;;;;15.25;12.30;;;13.60;99.90;;;;;;2084654;28;20032;-73
2023/05/02 00:18:22;;;;;;;16.05;13.48;;;13.60;99.90;;;;;;2080161;28;20107;-74
2023/05/02 00:19:23;;;;;;;16.20;13.05;;;13.60;99.90;;;;;;2084942;28;21083;-74
2023/05/02 00:20:24;;;;;;;17.27;13.05;;;13.60;99.90;;;;;;2086728;28;20086;-73
2023/05/02 00:21:24;;;;;;;16.05;13.00;;;13.60;99.90;;;;;;2086733;28;20234;-73
2023/05/02 00:22:25;;;;;;;16.35;12.82;;;13.60;99.90;;;;;;2089784;28;20028;-74
2023/05/02 00:23:26;;;;;;;16.42;12.65;;;13.60;99.90;;;;;;2085961;28;20035;-74
2023/05/02 00:24:26;;;;;;;14.73;12.32;;;13.60;99.90;;;;;;2086179;28;20036;-74
2023/05/02 00:25:27;;;;;;;16.02;12.43;;;13.60;99.90;;;;;;2090585;28;20119;-74
2023/05/02 00:26:27;;;;;;;14.45;12.02;;;13.60;99.90;;;;;;2091295;28;20036;-74
2023/05/02 00:27:32;;;;;;;14.30;12.18;;;13.60;99.90;;;;;;2092441;28;20172;-74
2023/05/02 00:28:32;;;;;;;15.35;11.95;;;13.60;99.90;;;;;;2092563;28;20035;-75
2023/05/02 00:29:33;;;;;;;13.98;12.18;;;13.60;99.90;;;;;;2099049;28;20028;-74
2023/05/02 00:30:33;;;;;;;15.73;12.02;;;13.60;99.90;;;;;;2090836;28;20101;-74
2023/05/02 00:31:35;;;;;;;14.60;12.27;;;13.60;99.90;;;;;;2092281;28;20036;-75
2023/05/02 00:32:35;;;;;;;14.95;12.13;;;13.60;99.90;;;;;;2083454;28;20029;-75
2023/05/02 00:33:36;;;;;;;15.30;11.98;;;13.60;99.90;;;;;;2085458;28;20430;-74
2023/05/02 00:34:36;;;;;;;16.85;13.63;;;13.60;99.90;;;;;;2085642;28;20043;-74
2023/05/02 00:35:37;;;;;;;16.23;13.52;;;13.60;99.90;;;;;;2077681;28;20021;-74
2023/05/02 00:36:38;;;;;;;19.00;13.75;;;13.60;99.90;;;;;;2092583;28;20028;-74
2023/05/02 00:37:38;;;;;;;16.02;14.00;;;13.50;99.90;;;;;;2086576;28;20213;-75
2023/05/02 00:38:39;;;;;;;18.23;13.82;;;13.50;99.90;;;;;;2090469;28;20049;-74
2023/05/02 00:39:39;;;;;;;16.60;13.55;;;13.50;99.90;;;;;;2090661;28;20029;-74
2023/05/02 00:40:50;;;;;;;16.30;12.23;;;13.50;99.90;;;;;;2088324;28;20025;-74
2023/05/02 00:42:00;;;;;;;16.05;13.27;;;13.50;99.90;;;;;;2094033;28;20032;-74
2023/05/02 00:43:00;;;;;;;14.00;11.98;;;13.50;99.90;;;;;;2091667;28;20035;-74
2023/05/02 00:44:01;;;;;;;19.13;13.27;;;13.50;99.90;;;;;;2074053;28;20124;-74
2023/05/02 00:45:05;;;;;;;17.00;12.85;;;13.50;99.90;;;;;;2078005;28;20029;-74
2023/05/02 00:46:06;;;;;;;16.25;12.93;;;13.50;99.90;;;;;;2085608;28;20091;-74
2023/05/02 00:47:07;;;;;;;17.38;13.10;;;13.50;99.90;;;;;;2082092;28;20079;-75
2023/05/02 00:48:08;;;;;;;17.52;13.50;;;13.50;99.90;;;;;;2073935;28;20040;-75
2023/05/02 00:49:09;;;;;;;17.45;13.18;;;13.50;99.90;;;;;;2084009;28;20059;-74
2023/05/02 00:50:09;;;;;;;15.05;12.18;;;13.50;99.90;;;;;;2085724;28;20413;-74
2023/05/02 00:51:12;;;;;;;16.27;12.30;;;13.50;99.90;;;;;;2091117;28;20048;-75
2023/05/02 00:52:12;;;;;;;17.02;12.07;;;13.50;99.90;;;;;;2091291;28;20513;-74
2023/05/02 00:53:13;;;;;;;16.00;12.32;;;13.50;99.90;;;;;;2093549;28;20032;-74
2023/05/02 00:54:14;;;;;;;15.25;12.07;;;13.50;99.90;;;;;;2090450;28;20516;-75
2023/05/02 00:55:15;;;;;;;13.75;11.68;;;13.50;99.90;;;;;;2085831;28;20487;-74
2023/05/02 00:56:16;;;;;;;16.02;13.15;;;13.50;99.90;;;;;;2086167;28;20040;-75
2023/05/02 00:57:17;;;;;;;14.60;12.10;;;13.50;99.90;;;;;;2091054;28;20060;-75
2023/05/02 00:58:19;;;;;;;16.33;12.80;;;13.50;99.90;;;;;;2089277;28;20158;-73
2023/05/02 00:59:19;;;;;;;15.35;12.05;;;13.50;99.90;;;;;;2089806;28;20384;-74
2023/05/02 01:00:21;;;;;;;15.65;12.23;;;13.50;99.90;;;;;;2085573;28;20035;-73
2023/05/02 01:01:30;;;;;;;14.75;11.90;;;13.50;99.90;;;;;;2090376;28;20046;-73
2023/05/02 01:02:39;;;;;;;15.48;12.65;;;13.50;99.90;;;;;;2080519;28;20028;-73
2023/05/02 01:03:57;;;;;;;16.63;13.25;;;13.50;99.90;;;;;;2090485;28;20036;-74
2023/05/02 01:05:19;;;;;;;15.73;13.13;;;13.50;99.90;;;;;;2086184;28;20044;-74
2023/05/02 01:06:47;;;;;;;16.10;13.32;;;13.50;99.90;;;;;;2084577;28;20039;-74
2023/05/02 01:08:09;;;;;;;17.15;13.50;;;13.50;99.90;;;;;;2086834;28;20566;-75
2023/05/02 01:09:33;;;;;;;17.17;13.73;;;13.40;99.90;;;;;;2086561;28;20028;-75
2023/05/02 01:10:43;;;;;;;18.35;13.38;;;13.40;99.90;;;;;;2084051;28;20408;-75
2023/05/02 01:11:48;;;;;;;15.00;12.75;;;13.40;99.90;;;;;;2090302;28;20562;-75
2023/05/02 01:13:08;;;;;;;16.70;13.02;;;13.40;99.90;;;;;;2089955;28;20082;-74
2023/05/02 01:14:10;;;;;;;15.35;12.98;;;13.40;99.90;;;;;;2090125;28;20483;-74
2023/05/02 01:15:16;;;;;;;17.73;13.35;;;13.40;99.90;;;;;;2082197;28;20408;-74
2023/05/02 01:16:20;;;;;;;14.77;12.48;;;13.40;99.90;;;;;;2090323;28;20032;-74
2023/05/02 01:17:26;;;;;;;14.10;11.90;;;13.40;99.90;;;;;;2084396;28;20445;-74
2023/05/02 01:18:33;;;;;;;14.90;12.45;;;13.40;99.90;;;;;;2089921;28;20016;-74
2023/05/02 01:19:37;;;;;;;15.10;12.63;;;13.40;99.90;;;;;;2087910;28;20329;-75
2023/05/02 01:20:43;;;;;;;16.13;12.93;;;13.40;99.90;;;;;;2084592;28;20078;-74
2023/05/02 01:21:44;;;;;;;15.18;12.48;;;13.40;99.90;;;;;;2100787;28;20028;-74
2023/05/02 01:22:46;;;;;;;16.80;12.73;;;13.40;99.90;;;;;;2106686;28;20031;-75
2023/05/02 01:24:09;;;;;;;17.60;12.93;;;13.40;99.90;;;;;;2086587;28;20035;-75
2023/05/02 01:25:16;;;;;;;15.82;12.80;;;13.40;99.90;;;;;;2086115;28;20493;-75
2023/05/02 01:26:28;;;;;;;16.25;13.27;;;13.40;99.90;;;;;;2089936;28;20507;-75
2023/05/02 01:27:46;;;;;;;14.60;12.52;;;13.40;99.90;;;;;;2090062;28;20033;-75
2023/05/02 01:29:01;;;;;;;15.18;12.40;;;13.40;99.90;;;;;;2090636;28;20103;-75
2023/05/02 01:30:03;;;;;;;14.73;11.82;;;13.30;99.90;;;;;;2090091;28;20466;-74
2023/05/02 01:31:06;;;;;;;13.45;11.80;;;13.30;99.90;;;;;;2085119;28;20025;-74
2023/05/02 01:32:08;;;;;;;13.25;11.75;;;13.30;99.90;;;;;;2088408;28;20031;-74
2023/05/02 01:33:12;;;;;;;13.70;11.40;;;13.30;99.90;;;;;;2081833;28;20029;-73
2023/05/02 01:34:13;;;;;;;15.23;11.63;;;13.30;99.90;;;;;;2092198;28;20036;-73
2023/05/02 01:35:15;;;;;;;14.88;12.43;;;13.20;99.90;;;;;;2090106;28;20028;-73
2023/05/02 01:36:17;;;;;;;15.32;12.80;;;13.30;99.90;;;;;;2090088;28;20040;-70
2023/05/02 01:37:19;;;;;;;17.63;13.45;;;13.20;99.90;;;;;;2085414;28;20143;-78
2023/05/02 01:38:21;;;;;;;17.58;13.80;;;13.20;99.90;;;;;;2087712;28;20122;-76
2023/05/02 01:39:25;;;;;;;18.00;13.45;;;13.20;99.90;;;;;;2091565;28;20433;-69
2023/05/02 01:40:26;;;;;;;20.60;14.07;;;13.20;99.90;;;;;;2090673;28;20033;-69
2023/05/02 01:41:29;;;;;;;15.57;12.73;;;13.20;99.90;;;;;;2090219;28;20040;-69
2023/05/02 01:42:33;;;;;;;18.67;13.82;;;13.20;99.90;;;;;;2089918;28;20588;-70
2023/05/02 01:43:35;;;;;;;15.68;12.85;;;13.30;99.90;;;;;;2090834;28;20086;-69
2023/05/02 01:44:37;;;;;;;15.80;13.20;;;13.30;99.90;;;;;;2090743;28;20036;-70
2023/05/02 01:45:39;;;;;;;15.43;12.88;;;13.20;99.90;;;;;;2090834;28;20021;-70
2023/05/02 01:46:42;;;;;;;16.38;12.73;;;13.20;99.90;;;;;;2090506;28;20028;-70
2023/05/02 01:47:44;;;;;;;15.57;12.25;;;13.20;99.90;;;;;;2091975;28;20028;-70
2023/05/02 01:48:47;;;;;;;15.93;12.55;;;13.20;99.90;;;;;;2081648;28;20106;-69
2023/05/02 01:49:48;;;;;;;15.95;11.73;;;13.20;99.90;;;;;;2081932;28;20129;-70
2023/05/02 01:50:50;;;;;;;14.40;11.68;;;13.20;99.90;;;;;;2097858;28;20064;-70
2023/05/02 01:51:51;;;;;;;15.68;12.10;;;13.20;99.90;;;;;;2108419;28;20077;-70
2023/05/02 01:52:53;;;;;;;16.27;12.13;;;13.20;99.90;;;;;;2090829;28;20443;-70
2023/05/02 01:53:55;;;;;;;15.23;12.40;;;13.20;99.90;;;;;;2089608;28;20024;-70
2023/05/02 01:54:59;;;;;;;17.02;12.77;;;13.20;99.90;;;;;;2089840;28;20063;-70
2023/05/02 01:56:00;;;;;;;20.25;13.52;;;13.20;99.90;;;;;;2089840;28;20020;-70
2023/05/02 01:57:04;;;;;;;18.38;13.30;;;13.20;99.90;;;;;;2085559;28;20484;-69
2023/05/02 01:58:05;;;;;;;20.60;14.43;;;13.20;99.90;;;;;;2084102;28;20415;-70
2023/05/02 01:59:09;;;;;;;23.25;15.38;;;13.20;99.90;;;;;;2089863;28;20029;-70
2023/05/02 02:00:12;;;;;;;22.05;14.88;;;13.20;99.90;;;;;;2076872;28;20089;-70
2023/05/02 02:01:17;;;;;;;21.48;15.00;;;13.20;99.90;;;;;;2082367;28;20025;-70
2023/05/02 02:02:20;;;;;;;20.33;14.18;;;13.20;99.90;;;;;;2082114;28;20024;-69
2023/05/02 02:03:21;;;;;;;21.13;14.80;;;13.20;99.90;;;;;;2083802;28;20511;-69
2023/05/02 02:04:24;;;;;;;20.58;14.30;;;13.20;99.90;;;;;;2086790;28;20033;-69
2023/05/02 02:05:25;;;;;;;21.65;14.75;;;13.20;99.90;;;;;;2088761;28;20087;-70
2023/05/02 02:06:26;;;;;;;21.88;14.90;;;13.20;99.90;;;;;;2090709;28;20284;-70
2023/05/02 02:07:27;;;;;;;21.15;14.77;;;13.20;99.90;;;;;;2086116;28;20035;-70
2023/05/02 02:08:28;;;;;;;22.05;15.05;;;13.20;99.90;;;;;;2087143;28;20153;-70
2023/05/02 02:09:30;;;;;;;19.90;14.15;;;13.20;99.90;;;;;;2084750;28;20086;-70
2023/05/02 02:10:39;;;;;;;19.80;14.32;;;13.20;99.90;;;;;;2085157;28;20044;-69
2023/05/02 02:11:46;;;;;;;20.13;14.60;;;13.20;99.90;;;;;;2087787;28;20021;-69
2023/05/02 02:13:03;;;;;;;18.63;13.63;;;13.20;99.90;;;;;;2083700;28;20035;-69
2023/05/02 02:14:16;;;;;;;18.58;13.90;;;13.20;99.90;;;;;;2083714;28;20041;-70
2023/05/02 02:15:26;;;;;;;17.13;13.13;;;13.20;99.90;;;;;;2083632;28;20052;-68
2023/05/02 02:16:31;;;;;;;19.40;13.13;;;13.20;99.90;;;;;;2084861;28;20036;-71
2023/05/02 02:17:39;;;;;;;17.02;13.18;;;13.10;99.90;;;;;;2092167;28;20030;-69
2023/05/02 02:18:41;;;;;;;16.55;13.25;;;13.20;99.90;;;;;;2084546;28;20396;-69
2023/05/02 02:19:42;;;;;;;16.60;12.95;;;13.10;99.90;;;;;;2089851;28;20373;-69
2023/05/02 02:20:45;;;;;;;15.48;12.75;;;13.10;99.90;;;;;;2085581;28;20107;-69
2023/05/02 02:21:47;;;;;;;16.27;12.57;;;13.10;99.90;;;;;;2089713;28;20052;-69
2023/05/02 02:22:49;;;;;;;15.95;12.23;;;13.20;99.90;;;;;;2089920;28;20033;-69
2023/05/02 02:23:52;;;;;;;14.07;12.02;;;13.20;99.90;;;;;;2089976;28;20028;-70
2023/05/02 02:24:53;;;;;;;13.77;12.15;;;13.20;99.90;;;;;;2099924;28;20056;-70
2023/05/02 02:25:56;;;;;;;14.43;12.27;;;13.20;99.90;;;;;;2098199;28;20477;-69
2023/05/02 02:26:56;;;;;;;13.32;11.65;;;13.20;99.90;;;;;;2089584;28;20032;-70
2023/05/02 02:27:57;;;;;;;13.52;11.30;;;13.20;99.90;;;;;;2076379;28;20116;-70
2023/05/02 02:28:59;;;;;;;12.88;11.38;;;13.20;99.90;;;;;;2089508;28;20060;-68
2023/05/02 02:30:00;;;;;;;13.75;11.10;;;13.20;99.90;;;;;;2091425;28;20040;-70
2023/05/02 02:31:00;;;;;;;12.40;11.07;;;13.20;99.90;;;;;;2089917;28;20282;-70
2023/05/02 02:32:01;;;;;;;13.25;11.23;;;13.20;99.90;;;;;;2089028;28;20530;-71
2023/05/02 02:33:02;;;;;;;13.63;11.30;;;13.20;99.90;;;;;;2085169;28;20163;-71
2023/05/02 02:34:02;;;;;;;13.70;11.18;;;13.20;99.90;;;;;;2090316;28;20567;-68
2023/05/02 02:35:03;;;;;;;12.13;10.82;;;13.10;99.90;;;;;;2092441;28;20031;-69
2023/05/02 02:36:31;;;;;;;12.57;11.10;;;13.10;99.90;;;;;;2084875;28;20033;-69
2023/05/02 02:37:36;;;;;;;13.15;10.98;;;13.10;99.90;;;;;;2084651;28;20112;-69
2023/05/02 02:38:51;;;;;;;12.95;10.82;;;13.10;99.90;;;;;;2089626;28;20035;-70
2023/05/02 02:40:07;;;;;;;13.98;11.48;;;13.10;99.90;;;;;;2083135;28;20092;-69
2023/05/02 02:41:15;;;;;;;14.50;11.73;;;13.10;99.90;;;;;;2090080;28;20103;-69
2023/05/02 02:42:50;;;;;;;15.68;12.80;;;13.20;99.90;;;;;;2089520;28;20562;-69
2023/05/02 02:44:17;;;;;;;15.88;12.68;;;13.20;99.90;;;;;;2070455;28;20045;-71
2023/05/02 02:45:38;;;;;;;15.82;13.05;;;13.20;99.90;;;;;;2083297;28;20230;-69
2023/05/02 02:47:01;;;;;;;14.95;12.75;;;13.20;99.90;;;;;;2081986;28;20053;-69
2023/05/02 02:48:18;;;;;;;15.00;12.27;;;13.10;99.90;;;;;;2078376;28;20033;-70
2023/05/02 02:49:46;;;;;;;16.88;12.10;;;13.20;99.90;;;;;;2079306;28;20025;-69
2023/05/02 02:51:23;;;;;;;15.75;12.48;;;13.10;99.90;;;;;;2081291;28;20053;-70
2023/05/02 02:52:35;;;;;;;16.42;13.27;;;13.10;99.90;;;;;;2081894;28;20499;-70
2023/05/02 02:53:55;;;;;;;15.73;12.85;;;13.10;99.90;;;;;;2082738;28;20043;-70
2023/05/02 02:55:01;;;;;;;19.00;13.32;;;13.10;99.90;;;;;;2082722;28;20096;-70
2023/05/02 02:56:05;;;;;;;16.42;12.88;;;13.10;99.90;;;;;;2089550;28;20033;-70
2023/05/02 02:57:15;;;;;;;16.17;13.10;;;13.10;99.90;;;;;;2089576;28;20231;-70
2023/05/02 02:58:46;;;;;;;15.82;13.32;;;13.20;99.90;;;;;;2089596;28;20090;-70
2023/05/02 03:00:07;;;;;;;17.00;13.10;;;13.20;99.90;;;;;;2080915;28;20456;-70
2023/05/02 03:01:17;;;;;;;18.02;14.07;;;13.20;99.90;;;;;;2089694;28;20083;-70
2023/05/02 03:02:21;;;;;;;17.58;13.50;;;13.10;99.90;;;;;;2089524;28;20060;-70
2023/05/02 03:03:27;;;;;;;15.82;13.05;;;13.20;99.90;;;;;;2089497;28;20548;-70
2023/05/02 03:04:31;;;;;;;15.80;12.50;;;13.20;99.90;;;;;;2089682;28;20391;-70
2023/05/02 03:05:33;;;;;;;14.77;12.82;;;13.20;99.90;;;;;;2089665;28;20033;-70
2023/05/02 03:06:33;;;;;;;16.83;13.57;;;13.20;99.90;;;;;;2091472;28;20621;-70
2023/05/02 03:07:35;;;;;;;17.77;14.18;;;13.10;99.90;;;;;;2080961;28;20055;-70
2023/05/02 03:08:43;;;;;;;15.73;12.52;;;13.10;99.90;;;;;;2081364;28;20063;-70
2023/05/02 03:09:48;;;;;;;15.98;12.93;;;13.20;99.90;;;;;;2077978;28;20033;-71
2023/05/02 03:10:56;;;;;;;15.45;12.48;;;13.10;99.90;;;;;;2077333;28;20024;-71
2023/05/02 03:11:56;;;;;;;16.95;12.50;;;13.10;99.90;;;;;;2089759;28;20331;-71
2023/05/02 03:12:59;;;;;;;15.65;12.55;;;13.10;99.90;;;;;;2099813;28;20028;-71
2023/05/02 03:13:59;;;;;;;14.93;12.13;;;13.10;99.90;;;;;;2086261;28;20083;-70
2023/05/02 03:15:39;;;;;;;17.25;13.70;;;13.10;99.90;;;;;;2089438;28;20551;-70
2023/05/02 03:16:41;;;;;;;15.48;12.43;;;13.10;99.90;;;;;;2085604;28;20155;-70
2023/05/02 03:17:46;;;;;;;16.30;12.35;;;13.10;99.90;;;;;;2078940;28;20025;-70
2023/05/02 03:18:47;;;;;;;18.10;13.15;;;13.10;99.90;;;;;;2089437;28;20023;-70
2023/05/02 03:19:48;;;;;;;17.85;13.95;;;13.10;99.90;;;;;;2084629;28;20111;-70
2023/05/02 03:20:48;;;;;;;17.42;13.75;;;13.10;99.90;;;;;;2084692;28;20025;-70
2023/05/02 03:21:49;;;;;;;17.33;13.60;;;13.10;99.90;;;;;;2074875;28;20096;-69
2023/05/02 03:22:53;;;;;;;16.23;13.35;;;13.10;99.90;;;;;;2074119;28;20072;-69
2023/05/02 03:23:54;;;;;;;17.45;13.48;;;13.00;99.90;;;;;;2079820;28;20029;-70
2023/05/02 03:24:54;;;;;;;17.25;13.50;;;13.00;99.90;;;;;;2078790;28;20104;-69
2023/05/02 03:25:55;;;;;;;15.80;12.70;;;13.00;99.90;;;;;;2081320;28;20211;-69
2023/05/02 03:26:58;;;;;;;20.08;12.80;;;13.00;99.90;;;;;;2091857;28;20231;-69
2023/05/02 03:28:04;;;;;;;15.48;12.88;;;13.00;99.90;;;;;;2082577;28;20138;-69
2023/05/02 03:29:05;;;;;;;17.02;12.80;;;13.00;99.90;;;;;;2084698;28;20103;-70
2023/05/02 03:30:11;;;;;;;18.25;13.02;;;13.00;99.90;;;;;;2077277;28;20036;-71
2023/05/02 03:31:13;;;;;;;17.55;12.90;;;13.00;99.90;;;;;;2089214;28;20433;-69
2023/05/02 03:32:13;;;;;;;17.40;13.10;;;12.90;99.90;;;;;;2089605;28;20020;-70
2023/05/02 03:33:16;;;;;;;17.52;13.38;;;12.90;99.90;;;;;;2084301;28;20534;-69
2023/05/02 03:34:20;;;;;;;19.17;12.45;;;12.90;99.90;;;;;;2084676;28;20029;-69
2023/05/02 03:35:22;;;;;;;13.13;11.68;;;12.90;99.90;;;;;;2089520;28;20033;-69
2023/05/02 03:36:24;;;;;;;14.95;12.23;;;12.90;99.90;;;;;;2076450;28;20025;-69
2023/05/02 03:37:27;;;;;;;17.88;13.13;;;12.80;99.90;;;;;;2089274;28;20033;-69
2023/05/02 03:38:30;;;;;;;18.75;12.40;;;12.80;99.90;;;;;;2097608;28;20125;-69
2023/05/02 03:39:35;;;;;;;14.98;12.18;;;12.80;99.90;;;;;;2099538;28;20035;-69
2023/05/02 03:40:36;;;;;;;14.68;11.80;;;12.80;99.90;;;;;;2089308;28;20397;-70
2023/05/02 03:41:36;;;;;;;14.50;11.68;;;12.80;99.90;;;;;;2076510;28;20925;-69
2023/05/02 03:42:41;;;;;;;17.73;12.30;;;12.80;99.90;;;;;;2084648;28;20605;-70
2023/05/02 03:43:53;;;;;;;15.52;12.23;;;12.70;99.90;;;;;;2086368;28;20028;-70
2023/05/02 03:44:56;;;;;;;15.73;12.60;;;12.70;99.90;;;;;;2086338;28;20032;-70
2023/05/02 03:46:05;;;;;;;15.88;12.32;;;12.70;99.90;;;;;;2087216;28;20040;-70
2023/05/02 03:47:06;;;;;;;15.43;12.20;;;12.70;99.90;;;;;;2088216;28;20028;-70
2023/05/02 03:48:11;;;;;;;15.38;12.02;;;12.70;99.90;;;;;;2088201;28;20129;-71
2023/05/02 03:49:12;;;;;;;13.73;11.05;;;12.70;99.90;;;;;;2084457;28;20025;-71
2023/05/02 03:50:16;;;;;;;13.23;10.82;;;12.60;99.90;;;;;;2098388;28;20032;-70
2023/05/02 03:51:19;;;;;;;16.48;11.80;;;12.60;99.90;;;;;;2097311;28;20382;-70
2023/05/02 03:52:25;;;;;;;13.30;11.50;;;12.70;99.90;;;;;;2086814;28;20017;-70
2023/05/02 03:53:28;;;;;;;14.52;11.07;;;12.60;99.90;;;;;;2091516;28;20112;-70
2023/05/02 03:54:32;;;;;;;13.02;10.73;;;12.60;99.90;;;;;;2082451;28;20280;-70
2023/05/02 03:55:38;;;;;;;14.32;11.25;;;12.60;99.90;;;;;;2084954;28;20020;-71
2023/05/02 03:56:39;;;;;;;12.60;10.70;;;12.60;99.90;;;;;;2088232;28;20131;-71
2023/05/02 03:57:49;;;;;;;12.77;10.68;;;12.60;99.90;;;;;;2083166;28;20024;-71
2023/05/02 03:58:49;;;;;;;13.70;10.85;;;12.60;99.90;;;;;;2084013;28;20365;-71
2023/05/02 03:59:54;;;;;;;13.77;10.70;;;12.60;99.90;;;;;;2077519;28;20021;-70
2023/05/02 04:01:00;;;;;;;14.43;10.70;;;12.50;99.90;;;;;;2099797;28;20062;-71
2023/05/02 04:02:01;;;;;;;12.05;10.18;;;12.50;99.90;;;;;;2099021;28;20063;-70
2023/05/02 04:03:15;;;;;;;11.10;9.63;;;12.50;99.90;;;;;;2092249;28;20029;-71
2023/05/02 04:04:18;;;;;;;11.88;9.55;;;12.50;99.90;;;;;;2090724;28;20039;-70
2023/05/02 04:05:23;;;;;;;11.98;9.82;;;12.50;99.90;;;;;;2090517;28;20079;-69
2023/05/02 04:06:24;;;;;;;11.52;9.88;;;12.50;99.90;;;;;;2084644;28;20381;-70
2023/05/02 04:07:30;;;;;;;12.40;9.95;;;12.50;99.90;;;;;;2080379;28;20025;-70
2023/05/02 04:08:37;;;;;;;11.60;9.73;;;12.50;99.90;;;;;;2083312;28;20122;-70
2023/05/02 04:09:38;;;;;;;10.88;9.43;;;12.50;99.90;;;;;;2087403;28;20036;-71
2023/05/02 04:10:42;;;;;;;11.63;9.18;;;12.50;99.90;;;;;;2078021;28;20535;-70
2023/05/02 04:11:44;;;;;;;11.50;9.23;;;12.50;99.90;;;;;;2097163;28;20032;-70
2023/05/02 04:12:46;;;;;;;11.75;9.77;;;12.50;99.90;;;;;;2099002;28;20091;-71
2023/05/02 04:13:48;;;;;;;11.40;10.00;;;12.50;99.90;;;;;;2092577;28;20062;-71
2023/05/02 04:14:49;;;;;;;13.63;11.00;;;12.50;99.90;;;;;;2077411;28;20033;-71
2023/05/02 04:15:50;;;;;;;13.77;11.55;;;12.50;99.90;;;;;;2090678;28;20541;-71
2023/05/02 04:16:54;;;;;;;14.02;11.68;;;12.50;99.90;;;;;;2085951;28;20055;-71
2023/05/02 04:18:04;;;;;;;13.05;10.48;;;12.50;99.90;;;;;;2090917;28;20331;-70
2023/05/02 04:19:05;;;;;;;15.75;11.38;;;12.50;99.90;;;;;;2090777;28;20091;-71
2023/05/02 04:20:06;;;;;;;15.30;10.38;;;12.60;99.90;;;;;;2083378;28;20021;-71
2023/05/02 04:21:09;;;;;;;14.27;10.23;;;12.60;99.90;;;;;;2084292;28;20029;-70
2023/05/02 04:22:11;;;;;;;30.55;11.20;;;12.60;99.90;;;;;;2082427;28;20025;-70
2023/05/02 04:23:17;;;;;;;30.33;11.38;;;12.60;99.90;;;;;;2090752;28;20052;-71
2023/05/02 04:24:19;;;;;;;19.88;11.40;;;12.70;99.90;;;;;;2090589;28;20033;-71
2023/05/02 04:25:20;;;;;;;15.50;11.30;;;12.70;99.90;;;;;;2091493;28;20028;-70
2023/05/02 04:26:20;;;;;;;12.23;10.55;;;12.70;99.90;;;;;;2087758;28;20028;-71
2023/05/02 04:27:28;;;;;;;17.10;11.20;;;12.70;99.90;;;;;;2085729;28;20033;-70
2023/05/02 04:28:29;;;;;;;15.15;10.95;;;12.70;99.90;;;;;;2077542;28;20555;-70
2023/05/02 04:29:30;;;;;;;15.82;11.30;;;12.70;99.90;;;;;;2082203;28;20411;-70
2023/05/02 04:30:31;;;;;;;17.27;10.60;;;12.70;99.90;;;;;;2090147;28;20088;-70
2023/05/02 04:31:39;;;;;;;13.32;10.68;;;12.70;99.90;;;;;;2105442;28;20524;-70
2023/05/02 04:32:39;;;;;;;17.52;10.50;;;12.80;99.90;;;;;;2099257;28;20123;-70
2023/05/02 04:33:40;;;;;;;13.40;10.35;;;12.70;99.90;;;;;;2090532;28;20039;-69
2023/05/02 04:34:41;;;;;;;14.43;10.98;;;12.80;99.90;;;;;;2089986;28;20051;-69
2023/05/02 04:35:43;;;;;;;14.05;11.00;;;12.80;99.90;;;;;;2084195;28;20116;-70
2023/05/02 04:36:46;;;;;;;15.85;11.05;;;12.80;99.90;;;;;;2080095;28;20021;-70
2023/05/02 04:37:51;;;;;;;13.95;10.60;;;12.90;99.90;;;;;;2082687;28;20417;-69
2023/05/02 04:38:53;;;;;;;13.70;10.48;;;12.90;99.90;;;;;;2090335;28;20579;-69
2023/05/02 04:39:54;;;;;;;20.98;13.43;;;13.00;99.90;;;;;;2090507;28;20428;-69
2023/05/02 04:40:58;;;;;;;29.02;12.27;;;13.00;99.90;;;;;;2092421;28;20697;-69
2023/05/02 04:42:06;;;;;;;42.95;12.15;;;13.00;99.90;;;;;;2083943;28;20032;-69
2023/05/02 04:43:11;;;;;;;62.42;11.90;;;13.10;99.90;;;;;;2075947;28;20116;-70
2023/05/02 04:44:23;;;;;;;26.50;10.45;;;13.20;99.90;;;;;;2075901;28;20650;-70
2023/05/02 04:45:25;;;;;;;16.05;11.25;;;13.30;99.90;;;;;;2086764;28;20031;-70
2023/05/02 04:46:26;;;;;;;15.05;10.32;;;13.30;99.90;;;;;;2090102;28;20150;-69
2023/05/02 04:47:27;;;;;;;17.83;10.70;;;13.30;99.90;;;;;;2092492;28;20319;-71
2023/05/02 04:48:27;;;;;;;12.82;10.20;;;13.30;99.90;;;;;;2085555;28;20535;-71
2023/05/02 04:49:28;;;;;;;33.22;11.82;;;13.30;99.90;;;;;;2098809;28;20783;-70
2023/05/02 04:50:28;;;;;;;59.00;12.13;;;13.30;99.90;;;;;;2090222;28;20606;-71
2023/05/02 04:51:30;;;;;;;21.73;10.80;;;13.30;99.90;;;;;;2092534;28;20373;-70
2023/05/02 04:52:31;;;;;;;18.00;10.68;;;13.30;99.90;;;;;;2083458;28;20087;-71
2023/05/02 04:53:32;;;;;;;17.30;10.18;;;13.30;99.90;;;;;;2088376;28;20577;-71
2023/05/02 04:54:33;;;;;;;18.92;10.82;;;13.30;99.90;;;;;;2089987;28;20415;-68
2023/05/02 04:55:34;;;;;;;14.35;10.90;;;13.40;99.90;;;;;;2092215;28;20105;-70
2023/05/02 04:56:34;;;;;;;35.20;11.50;;;13.40;99.90;;;;;;2082154;28;20495;-69
2023/05/02 04:57:35;;;;;;;18.98;10.00;;;13.40;99.90;;;;;;2082271;28;20346;-70
2023/05/02 04:58:37;;;;;;;16.33;11.02;;;13.40;99.90;;;;;;2082244;28;20024;-70
2023/05/02 04:59:41;;;;;;;14.65;10.18;;;13.40;99.90;;;;;;2092452;28;20078;-69
2023/05/02 05:00:41;;;;;;;11.90;9.90;;;13.40;99.90;;;;;;2098520;28;20471;-70
2023/05/02 05:01:44;;;;;;;12.68;10.20;;;13.40;99.90;;;;;;2102732;28;20066;-71
2023/05/02 05:02:44;;;;;;;19.08;10.73;;;13.30;99.90;;;;;;2090945;28;20067;-70
2023/05/02 05:03:47;;;;;;;16.95;10.80;;;13.30;99.90;;;;;;2090284;28;20613;-70
2023/05/02 05:04:50;;;;;;;14.57;9.85;;;13.30;99.90;;;;;;2075842;28;20038;-69
2023/05/02 05:05:52;;;;;;;15.98;10.45;;;13.40;99.90;;;;;;2066490;28;20032;-70
2023/05/02 05:06:56;;;;;;;16.25;9.75;;;13.40;99.90;;;;;;2088775;28;20031;-70
2023/05/02 05:07:57;;;;;;;14.32;9.95;;;13.30;99.90;;;;;;2098685;28;20051;-70
2023/05/02 05:09:01;;;;;;;14.93;9.80;;;13.30;99.90;;;;;;2094680;28;20027;-71
2023/05/02 05:10:02;;;;;;;13.68;9.30;;;13.30;99.90;;;;;;2092376;28;20036;-71
2023/05/02 05:11:08;;;;;;;18.15;10.18;;;13.30;99.90;;;;;;2086226;28;20082;-71
2023/05/02 05:12:09;;;;;;;12.38;9.75;;;13.30;99.90;;;;;;2084092;28;20470;-69
2023/05/02 05:13:12;;;;;;;13.35;9.70;;;13.30;99.90;;;;;;2077455;28;20424;-69
2023/05/02 05:14:14;;;;;;;12.70;9.45;;;13.30;99.90;;;;;;2085666;28;20028;-70
2023/05/02 05:15:21;;;;;;;14.15;10.07;;;13.30;99.90;;;;;;2089946;28;20467;-69
2023/05/02 05:16:26;;;;;;;13.95;9.23;;;13.40;99.90;;;;;;2088678;28;20036;-69
2023/05/02 05:17:27;;;;;;;12.70;10.00;;;13.40;99.90;;;;;;2075844;28;20187;-70
2023/05/02 05:18:28;;;;;;;13.65;10.15;;;13.40;99.90;;;;;;2082068;28;20547;-70
2023/05/02 05:19:28;;;;;;;13.32;9.35;;;13.40;99.90;;;;;;2090025;28;20028;-69
2023/05/02 05:20:30;;;;;;;12.80;9.57;;;13.40;99.90;;;;;;2090062;28;20077;-68
2023/05/02 05:21:33;;;;;;;13.35;10.00;;;13.40;99.90;;;;;;2094015;28;20021;-68
2023/05/02 05:22:40;;;;;;;14.32;10.23;;;13.30;99.90;;;;;;2093300;28;20024;-68
2023/05/02 05:23:44;;;;;;;19.13;12.07;;;13.30;99.90;;;;;;2094077;28;20044;-68
2023/05/02 05:24:54;;;;;;;12.30;10.07;;;13.30;99.90;;;;;;2098029;28;20027;-67
2023/05/02 05:25:56;;;;;;;12.38;9.05;;;13.30;99.90;;;;;;2083938;28;20107;-68
2023/05/02 05:26:57;;;;;;;15.27;9.63;;;13.30;99.90;;;;;;2083735;28;20028;-67